sensor_id;sensor_type;location;lat;lon;timestamp;P1;durP1;ratioP1;P2;durP2;ratioP2
62121;SDS011;48108;47.532;19.084;2023-09-12T03:47:57;8.10;;;5.25;;
62121;SDS011;48108;47.532;19.084;2023-09-12T03:51:00;11.02;;;5.47;;
62121;SDS011;48108;47.532;19.084;2023-09-12T03:54:03;10.63;;;5.10;;
62121;SDS011;48108;47.532;19.084;2023-09-12T03:57:07;9.95;;;5.78;;
62121;SDS011;48108;47.532;19.084;2023-09-12T04:00:10;7.72;;;5.12;;
62121;SDS011;48108;47.532;19.084;2023-09-12T04:03:14;12.27;;;6.50;;
62121;SDS011;48108;47.532;19.084;2023-09-12T04:06:19;10.30;;;5.40;;
62121;SDS011;48108;47.532;19.084;2023-09-12T04:09:22;9.93;;;5.78;;
62121;SDS011;48108;47.532;19.084;2023-09-12T04:12:25;13.13;;;5.15;;
62121;SDS011;48108;47.532;19.084;2023-09-12T04:15:27;9.60;;;6.20;;
62121;SDS011;48108;47.532;19.084;2023-09-12T04:18:30;11.45;;;6.45;;
62121;SDS011;48108;47.532;19.084;2023-09-12T04:21:33;8.40;;;5.35;;
62121;SDS011;48108;47.532;19.084;2023-09-12T04:24:37;10.10;;;5.20;;
62121;SDS011;48108;47.532;19.084;2023-09-12T04:27:41;8.10;;;5.82;;
62121;SDS011;48108;47.532;19.084;2023-09-12T04:30:44;9.52;;;6.28;;
62121;SDS011;48108;47.532;19.084;2023-09-12T04:33:50;9.73;;;5.50;;
62121;SDS011;48108;47.532;19.084;2023-09-12T04:36:54;10.15;;;6.30;;
62121;SDS011;48108;47.532;19.084;2023-09-12T04:39:58;10.23;;;5.32;;
62121;SDS011;48108;47.532;19.084;2023-09-12T04:43:01;8.80;;;6.18;;
62121;SDS011;48108;47.532;19.084;2023-09-12T04:46:06;9.15;;;5.95;;
62121;SDS011;48108;47.532;19.084;2023-09-12T04:49:09;11.00;;;6.12;;
62121;SDS011;48108;47.532;19.084;2023-09-12T04:52:12;9.20;;;5.80;;
62121;SDS011;48108;47.532;19.084;2023-09-12T04:55:15;8.27;;;5.82;;
62121;SDS011;48108;47.532;19.084;2023-09-12T04:58:18;7.28;;;5.90;;
62121;SDS011;48108;47.532;19.084;2023-09-12T05:01:21;11.15;;;6.60;;
62121;SDS011;48108;47.532;19.084;2023-09-12T05:04:24;10.77;;;5.28;;
62121;SDS011;48108;47.532;19.084;2023-09-12T05:07:27;11.93;;;6.37;;
62121;SDS011;48108;47.532;19.084;2023-09-12T05:10:30;12.93;;;6.55;;
62121;SDS011;48108;47.532;19.084;2023-09-12T05:13:33;9.70;;;6.20;;
62121;SDS011;48108;47.532;19.084;2023-09-12T05:16:36;12.07;;;6.70;;
62121;SDS011;48108;47.532;19.084;2023-09-12T05:19:40;9.90;;;6.35;;
62121;SDS011;48108;47.532;19.084;2023-09-12T05:22:42;9.57;;;5.97;;
62121;SDS011;48108;47.532;19.084;2023-09-12T05:25:45;11.52;;;5.82;;
62121;SDS011;48108;47.532;19.084;2023-09-12T05:28:51;12.30;;;5.90;;
62121;SDS011;48108;47.532;19.084;2023-09-12T05:31:55;8.15;;;5.95;;
62121;SDS011;48108;47.532;19.084;2023-09-12T05:34:58;12.13;;;6.10;;
62121;SDS011;48108;47.532;19.084;2023-09-12T05:38:21;12.80;;;6.68;;
62121;SDS011;48108;47.532;19.084;2023-09-12T05:41:25;10.05;;;5.70;;
62121;SDS011;48108;47.532;19.084;2023-09-12T05:44:28;9.60;;;6.32;;
62121;SDS011;48108;47.532;19.084;2023-09-12T05:47:31;12.07;;;6.55;;
62121;SDS011;48108;47.532;19.084;2023-09-12T05:50:34;10.25;;;5.93;;
62121;SDS011;48108;47.532;19.084;2023-09-12T05:53:39;11.15;;;6.00;;
62121;SDS011;48108;47.532;19.084;2023-09-12T05:56:42;8.70;;;6.10;;
62121;SDS011;48108;47.532;19.084;2023-09-12T05:59:45;9.93;;;5.70;;
62121;SDS011;48108;47.532;19.084;2023-09-12T06:02:48;8.70;;;6.00;;
62121;SDS011;48108;47.532;19.084;2023-09-12T06:05:51;8.73;;;6.45;;
62121;SDS011;48108;47.532;19.084;2023-09-12T06:08:54;10.02;;;5.60;;
62121;SDS011;48108;47.532;19.084;2023-09-12T06:11:58;11.02;;;6.68;;
62121;SDS011;48108;47.532;19.084;2023-09-12T06:15:01;10.15;;;6.55;;
62121;SDS011;48108;47.532;19.084;2023-09-12T06:18:06;11.63;;;6.00;;
62121;SDS011;48108;47.532;19.084;2023-09-12T06:21:09;13.55;;;5.90;;
62121;SDS011;48108;47.532;19.084;2023-09-12T06:24:14;10.18;;;6.12;;
62121;SDS011;48108;47.532;19.084;2023-09-12T06:27:18;11.02;;;5.85;;
62121;SDS011;48108;47.532;19.084;2023-09-12T06:30:21;9.73;;;6.15;;
62121;SDS011;48108;47.532;19.084;2023-09-12T06:33:25;11.70;;;5.55;;
62121;SDS011;48108;47.532;19.084;2023-09-12T06:36:29;13.60;;;6.00;;
62121;SDS011;48108;47.532;19.084;2023-09-12T06:39:32;10.10;;;6.30;;
62121;SDS011;48108;47.532;19.084;2023-09-12T06:42:35;9.30;;;6.30;;
62121;SDS011;48108;47.532;19.084;2023-09-12T06:45:40;11.10;;;5.70;;
62121;SDS011;48108;47.532;19.084;2023-09-12T06:48:44;10.13;;;5.68;;
62121;SDS011;48108;47.532;19.084;2023-09-12T06:51:48;11.77;;;6.53;;
62121;SDS011;48108;47.532;19.084;2023-09-12T06:54:53;15.82;;;7.45;;
62121;SDS011;48108;47.532;19.084;2023-09-12T06:57:55;13.32;;;7.40;;
62121;SDS011;48108;47.532;19.084;2023-09-12T07:01:05;14.60;;;6.62;;
62121;SDS011;48108;47.532;19.084;2023-09-12T07:04:09;13.75;;;7.78;;
62121;SDS011;48108;47.532;19.084;2023-09-12T07:07:13;12.43;;;7.75;;
62121;SDS011;48108;47.532;19.084;2023-09-12T07:10:16;12.20;;;6.90;;
62121;SDS011;48108;47.532;19.084;2023-09-12T07:13:26;10.88;;;7.35;;
62121;SDS011;48108;47.532;19.084;2023-09-12T07:16:30;12.27;;;7.47;;
62121;SDS011;48108;47.532;19.084;2023-09-12T07:19:34;12.20;;;7.35;;
62121;SDS011;48108;47.532;19.084;2023-09-12T07:22:37;13.40;;;6.85;;
62121;SDS011;48108;47.532;19.084;2023-09-12T07:25:42;13.75;;;7.68;;
62121;SDS011;48108;47.532;19.084;2023-09-12T07:28:44;12.73;;;7.85;;
62121;SDS011;48108;47.532;19.084;2023-09-12T07:31:51;12.40;;;7.62;;
62121;SDS011;48108;47.532;19.084;2023-09-12T07:34:55;11.88;;;7.22;;
62121;SDS011;48108;47.532;19.084;2023-09-12T07:37:58;11.90;;;7.20;;
62121;SDS011;48108;47.532;19.084;2023-09-12T07:41:02;14.00;;;7.40;;
62121;SDS011;48108;47.532;19.084;2023-09-12T07:44:05;11.98;;;7.28;;
62121;SDS011;48108;47.532;19.084;2023-09-12T07:47:10;11.57;;;8.02;;
62121;SDS011;48108;47.532;19.084;2023-09-12T07:50:13;12.30;;;7.53;;
62121;SDS011;48108;47.532;19.084;2023-09-12T07:53:16;13.70;;;7.75;;
62121;SDS011;48108;47.532;19.084;2023-09-12T07:56:19;9.88;;;7.43;;
62121;SDS011;48108;47.532;19.084;2023-09-12T07:59:22;10.50;;;6.70;;
62121;SDS011;48108;47.532;19.084;2023-09-12T08:02:26;12.02;;;6.55;;
62121;SDS011;48108;47.532;19.084;2023-09-12T08:05:29;12.05;;;6.50;;
62121;SDS011;48108;47.532;19.084;2023-09-12T08:08:32;11.40;;;6.70;;
62121;SDS011;48108;47.532;19.084;2023-09-12T08:11:35;11.63;;;6.70;;
62121;SDS011;48108;47.532;19.084;2023-09-12T08:14:38;13.62;;;6.65;;
62121;SDS011;48108;47.532;19.084;2023-09-12T08:17:41;19.83;;;7.05;;
62121;SDS011;48108;47.532;19.084;2023-09-12T08:20:44;12.02;;;7.00;;
62121;SDS011;48108;47.532;19.084;2023-09-12T08:23:47;11.52;;;6.82;;
62121;SDS011;48108;47.532;19.084;2023-09-12T08:26:50;12.93;;;6.70;;
62121;SDS011;48108;47.532;19.084;2023-09-12T08:29:53;12.77;;;6.20;;
62121;SDS011;48108;47.532;19.084;2023-09-12T08:32:56;12.18;;;6.32;;
62121;SDS011;48108;47.532;19.084;2023-09-12T08:36:00;14.00;;;6.40;;
62121;SDS011;48108;47.532;19.084;2023-09-12T08:39:03;10.50;;;6.80;;
62121;SDS011;48108;47.532;19.084;2023-09-12T08:42:07;17.00;;;6.62;;
62121;SDS011;48108;47.532;19.084;2023-09-12T08:45:15;12.77;;;6.00;;
62121;SDS011;48108;47.532;19.084;2023-09-12T08:48:20;8.90;;;5.68;;
62121;SDS011;48108;47.532;19.084;2023-09-12T08:51:26;16.30;;;5.43;;
62121;SDS011;48108;47.532;19.084;2023-09-12T08:54:30;10.82;;;6.32;;
62121;SDS011;48108;47.532;19.084;2023-09-12T08:57:35;11.60;;;5.75;;
62121;SDS011;48108;47.532;19.084;2023-09-12T09:00:41;9.93;;;5.90;;
62121;SDS011;48108;47.532;19.084;2023-09-12T09:03:44;9.57;;;5.82;;
62121;SDS011;48108;47.532;19.084;2023-09-12T09:06:48;14.00;;;5.60;;
62121;SDS011;48108;47.532;19.084;2023-09-12T09:09:52;10.90;;;5.03;;
62121;SDS011;48108;47.532;19.084;2023-09-12T09:12:56;8.88;;;4.90;;
62121;SDS011;48108;47.532;19.084;2023-09-12T09:16:15;17.70;;;5.25;;
62121;SDS011;48108;47.532;19.084;2023-09-12T09:19:21;16.77;;;6.25;;
62121;SDS011;48108;47.532;19.084;2023-09-12T09:22:24;11.30;;;5.12;;
62121;SDS011;48108;47.532;19.084;2023-09-12T09:25:27;6.32;;;4.62;;
62121;SDS011;48108;47.532;19.084;2023-09-12T09:28:30;10.60;;;4.90;;
62121;SDS011;48108;47.532;19.084;2023-09-12T09:31:33;8.90;;;4.60;;
62121;SDS011;48108;47.532;19.084;2023-09-12T09:34:39;10.18;;;4.55;;
62121;SDS011;48108;47.532;19.084;2023-09-12T09:37:44;8.15;;;5.22;;
62121;SDS011;48108;47.532;19.084;2023-09-12T09:40:47;8.32;;;4.80;;
62121;SDS011;48108;47.532;19.084;2023-09-12T09:43:51;6.40;;;4.60;;
62121;SDS011;48108;47.532;19.084;2023-09-12T09:46:55;5.75;;;4.20;;
62121;SDS011;48108;47.532;19.084;2023-09-12T09:50:09;9.55;;;4.07;;
62121;SDS011;48108;47.532;19.084;2023-09-12T09:56:20;8.93;;;3.67;;
62121;SDS011;48108;47.532;19.084;2023-09-12T09:59:23;6.32;;;3.40;;
62121;SDS011;48108;47.532;19.084;2023-09-12T10:02:27;7.57;;;3.80;;
62121;SDS011;48108;47.532;19.084;2023-09-12T10:05:32;5.95;;;4.05;;
62121;SDS011;48108;47.532;19.084;2023-09-12T10:08:35;5.07;;;3.90;;
62121;SDS011;48108;47.532;19.084;2023-09-12T10:11:40;7.22;;;3.72;;
62121;SDS011;48108;47.532;19.084;2023-09-12T10:14:45;5.45;;;3.67;;
62121;SDS011;48108;47.532;19.084;2023-09-12T10:17:55;7.85;;;3.70;;
62121;SDS011;48108;47.532;19.084;2023-09-12T10:21:03;6.28;;;3.58;;
62121;SDS011;48108;47.532;19.084;2023-09-12T10:24:11;5.70;;;3.45;;
62121;SDS011;48108;47.532;19.084;2023-09-12T10:27:15;6.05;;;3.72;;
62121;SDS011;48108;47.532;19.084;2023-09-12T10:30:18;8.75;;;4.10;;
62121;SDS011;48108;47.532;19.084;2023-09-12T10:33:24;6.10;;;4.03;;
62121;SDS011;48108;47.532;19.084;2023-09-12T10:36:29;5.53;;;3.62;;
62121;SDS011;48108;47.532;19.084;2023-09-12T10:39:33;5.37;;;3.62;;
62121;SDS011;48108;47.532;19.084;2023-09-12T10:42:38;7.50;;;3.85;;
62121;SDS011;48108;47.532;19.084;2023-09-12T10:45:41;6.37;;;4.10;;
62121;SDS011;48108;47.532;19.084;2023-09-12T10:48:47;6.55;;;3.95;;
62121;SDS011;48108;47.532;19.084;2023-09-12T10:51:50;8.30;;;4.07;;
62121;SDS011;48108;47.532;19.084;2023-09-12T10:54:54;11.82;;;4.22;;
62121;SDS011;48108;47.532;19.084;2023-09-12T10:58:02;9.93;;;4.75;;
62121;SDS011;48108;47.532;19.084;2023-09-12T11:01:25;8.18;;;3.83;;
62121;SDS011;48108;47.532;19.084;2023-09-12T11:04:29;7.90;;;4.12;;
62121;SDS011;48108;47.532;19.084;2023-09-12T11:10:38;8.63;;;4.18;;
62121;SDS011;48108;47.532;19.084;2023-09-12T11:13:41;8.68;;;4.30;;
62121;SDS011;48108;47.532;19.084;2023-09-12T11:20:12;9.13;;;4.53;;
62121;SDS011;48108;47.532;19.084;2023-09-12T11:23:15;6.28;;;4.00;;
62121;SDS011;48108;47.532;19.084;2023-09-12T11:26:19;7.78;;;3.40;;
62121;SDS011;48108;47.532;19.084;2023-09-12T11:29:26;6.50;;;3.47;;
62121;SDS011;48108;47.532;19.084;2023-09-12T11:32:39;8.07;;;3.50;;
62121;SDS011;48108;47.532;19.084;2023-09-12T11:35:42;7.37;;;3.47;;
62121;SDS011;48108;47.532;19.084;2023-09-12T11:38:51;7.75;;;3.50;;
62121;SDS011;48108;47.532;19.084;2023-09-12T11:41:55;5.55;;;3.30;;
62121;SDS011;48108;47.532;19.084;2023-09-12T11:44:59;9.55;;;3.90;;
62121;SDS011;48108;47.532;19.084;2023-09-12T11:48:02;8.63;;;3.78;;
62121;SDS011;48108;47.532;19.084;2023-09-12T11:51:06;6.85;;;3.20;;
62121;SDS011;48108;47.532;19.084;2023-09-12T11:54:10;6.65;;;3.50;;
62121;SDS011;48108;47.532;19.084;2023-09-12T11:57:14;4.32;;;3.00;;
62121;SDS011;48108;47.532;19.084;2023-09-12T12:00:17;5.07;;;2.80;;
62121;SDS011;48108;47.532;19.084;2023-09-12T12:03:25;4.62;;;2.87;;
62121;SDS011;48108;47.532;19.084;2023-09-12T12:06:30;4.60;;;3.30;;
62121;SDS011;48108;47.532;19.084;2023-09-12T12:09:33;5.70;;;2.92;;
62121;SDS011;48108;47.532;19.084;2023-09-12T12:12:37;7.95;;;3.00;;
62121;SDS011;48108;47.532;19.084;2023-09-12T12:15:40;8.65;;;3.00;;
62121;SDS011;48108;47.532;19.084;2023-09-12T12:18:43;5.28;;;2.87;;
62121;SDS011;48108;47.532;19.084;2023-09-12T12:21:46;4.18;;;3.33;;
62121;SDS011;48108;47.532;19.084;2023-09-12T12:24:49;6.75;;;2.80;;
62121;SDS011;48108;47.532;19.084;2023-09-12T12:27:55;3.50;;;2.75;;
62121;SDS011;48108;47.532;19.084;2023-09-12T12:30:57;4.28;;;2.87;;
62121;SDS011;48108;47.532;19.084;2023-09-12T12:34:02;7.93;;;3.00;;
62121;SDS011;48108;47.532;19.084;2023-09-12T12:37:29;8.20;;;3.10;;
62121;SDS011;48108;47.532;19.084;2023-09-12T12:40:37;5.28;;;2.97;;
62121;SDS011;48108;47.532;19.084;2023-09-12T12:43:50;5.75;;;2.78;;
62121;SDS011;48108;47.532;19.084;2023-09-12T12:46:54;10.18;;;2.83;;
62121;SDS011;48108;47.532;19.084;2023-09-12T12:49:57;6.50;;;2.67;;
62121;SDS011;48108;47.532;19.084;2023-09-12T12:53:00;8.77;;;2.75;;
62121;SDS011;48108;47.532;19.084;2023-09-12T12:56:03;7.30;;;3.08;;
62121;SDS011;48108;47.532;19.084;2023-09-12T12:59:07;7.75;;;3.15;;
62121;SDS011;48108;47.532;19.084;2023-09-12T13:02:11;8.43;;;2.75;;
62121;SDS011;48108;47.532;19.084;2023-09-12T13:05:23;6.87;;;2.67;;
62121;SDS011;48108;47.532;19.084;2023-09-12T13:08:27;5.62;;;2.70;;
62121;SDS011;48108;47.532;19.084;2023-09-12T13:11:30;5.72;;;3.17;;
62121;SDS011;48108;47.532;19.084;2023-09-12T13:14:37;7.37;;;2.70;;
62121;SDS011;48108;47.532;19.084;2023-09-12T13:17:40;7.20;;;2.80;;
62121;SDS011;48108;47.532;19.084;2023-09-12T13:20:43;8.43;;;3.17;;
62121;SDS011;48108;47.532;19.084;2023-09-12T13:23:46;9.00;;;2.80;;
62121;SDS011;48108;47.532;19.084;2023-09-12T13:26:51;5.75;;;2.90;;
62121;SDS011;48108;47.532;19.084;2023-09-12T13:29:54;7.45;;;2.87;;
62121;SDS011;48108;47.532;19.084;2023-09-12T13:33:01;8.52;;;3.00;;
62121;SDS011;48108;47.532;19.084;2023-09-12T13:36:06;5.75;;;3.15;;
62121;SDS011;48108;47.532;19.084;2023-09-12T13:39:09;8.95;;;2.65;;
62121;SDS011;48108;47.532;19.084;2023-09-12T13:42:16;6.12;;;2.53;;
62121;SDS011;48108;47.532;19.084;2023-09-12T13:45:23;16.90;;;3.20;;
62121;SDS011;48108;47.532;19.084;2023-09-12T13:48:26;7.32;;;3.00;;
62121;SDS011;48108;47.532;19.084;2023-09-12T13:51:29;7.53;;;3.42;;
62121;SDS011;48108;47.532;19.084;2023-09-12T13:54:32;8.82;;;3.17;;
62121;SDS011;48108;47.532;19.084;2023-09-12T13:57:36;10.63;;;3.22;;
62121;SDS011;48108;47.532;19.084;2023-09-12T14:00:52;10.55;;;3.10;;
62121;SDS011;48108;47.532;19.084;2023-09-12T14:03:56;9.25;;;2.95;;
62121;SDS011;48108;47.532;19.084;2023-09-12T14:07:01;8.85;;;3.45;;
62121;SDS011;48108;47.532;19.084;2023-09-12T14:10:09;8.75;;;3.53;;
62121;SDS011;48108;47.532;19.084;2023-09-12T14:13:21;13.07;;;3.33;;
62121;SDS011;48108;47.532;19.084;2023-09-12T14:16:26;5.35;;;2.97;;
62121;SDS011;48108;47.532;19.084;2023-09-12T14:19:28;10.30;;;3.30;;
62121;SDS011;48108;47.532;19.084;2023-09-12T14:22:32;9.27;;;3.00;;
62121;SDS011;48108;47.532;19.084;2023-09-12T14:25:38;8.43;;;3.17;;
62121;SDS011;48108;47.532;19.084;2023-09-12T14:28:41;9.30;;;3.50;;
62121;SDS011;48108;47.532;19.084;2023-09-12T14:31:45;12.18;;;3.22;;
62121;SDS011;48108;47.532;19.084;2023-09-12T14:34:53;10.05;;;3.50;;
62121;SDS011;48108;47.532;19.084;2023-09-12T14:37:56;7.50;;;3.33;;
62121;SDS011;48108;47.532;19.084;2023-09-12T14:41:01;12.00;;;3.53;;
62121;SDS011;48108;47.532;19.084;2023-09-12T14:44:05;6.50;;;3.05;;
62121;SDS011;48108;47.532;19.084;2023-09-12T14:47:08;8.43;;;3.03;;
62121;SDS011;48108;47.532;19.084;2023-09-12T14:50:11;6.20;;;3.20;;
62121;SDS011;48108;47.532;19.084;2023-09-12T14:53:14;11.63;;;3.65;;
62121;SDS011;48108;47.532;19.084;2023-09-12T14:56:18;10.60;;;3.72;;
62121;SDS011;48108;47.532;19.084;2023-09-12T14:59:21;13.50;;;3.62;;
62121;SDS011;48108;47.532;19.084;2023-09-12T15:02:25;9.07;;;3.47;;
62121;SDS011;48108;47.532;19.084;2023-09-12T15:05:34;9.80;;;3.45;;
62121;SDS011;48108;47.532;19.084;2023-09-12T15:08:37;10.77;;;3.80;;
62121;SDS011;48108;47.532;19.084;2023-09-12T15:11:40;9.63;;;3.60;;
62121;SDS011;48108;47.532;19.084;2023-09-12T15:14:42;10.98;;;3.60;;
62121;SDS011;48108;47.532;19.084;2023-09-12T15:17:46;15.13;;;3.60;;
62121;SDS011;48108;47.532;19.084;2023-09-12T15:20:50;7.05;;;3.58;;
62121;SDS011;48108;47.532;19.084;2023-09-12T15:23:54;10.48;;;3.72;;
62121;SDS011;48108;47.532;19.084;2023-09-12T15:26:59;9.40;;;3.78;;
62121;SDS011;48108;47.532;19.084;2023-09-12T15:30:02;11.90;;;3.67;;
62121;SDS011;48108;47.532;19.084;2023-09-12T15:33:05;11.18;;;3.78;;
62121;SDS011;48108;47.532;19.084;2023-09-12T15:36:08;7.00;;;3.72;;
62121;SDS011;48108;47.532;19.084;2023-09-12T15:39:12;12.05;;;3.90;;
62121;SDS011;48108;47.532;19.084;2023-09-12T15:42:15;8.63;;;3.75;;
62121;SDS011;48108;47.532;19.084;2023-09-12T15:45:36;8.27;;;3.45;;
62121;SDS011;48108;47.532;19.084;2023-09-12T15:48:53;8.82;;;3.67;;
62121;SDS011;48108;47.532;19.084;2023-09-12T15:51:57;9.65;;;3.70;;
62121;SDS011;48108;47.532;19.084;2023-09-12T15:55:00;13.38;;;3.90;;
62121;SDS011;48108;47.532;19.084;2023-09-12T15:58:03;9.98;;;3.92;;
62121;SDS011;48108;47.532;19.084;2023-09-12T16:01:06;8.82;;;3.92;;
62121;SDS011;48108;47.532;19.084;2023-09-12T16:04:10;9.57;;;3.65;;
62121;SDS011;48108;47.532;19.084;2023-09-12T16:07:13;8.00;;;3.65;;
62121;SDS011;48108;47.532;19.084;2023-09-12T16:10:16;10.05;;;3.75;;
62121;SDS011;48108;47.532;19.084;2023-09-12T16:13:19;7.40;;;3.47;;
62121;SDS011;48108;47.532;19.084;2023-09-12T16:16:22;11.30;;;3.85;;
62121;SDS011;48108;47.532;19.084;2023-09-12T16:19:25;7.87;;;3.53;;
